Time;durP1;ratioP1;P1;durP2;ratioP2;P2;SDS_P1;SDS_P2;PMS_P1;PMS_P2;Temp;Humidity;BMP_temperature;BMP_pressure;BME280_temperature;BME280_humidity;BME280_pressure;Samples;Min_cycle;Max_cycle;Signal;HPM_P1;HPM_P2
2023/06/16 00:00:38;;;;;;;9.25;3.65;;;;;;;;;;7368758;19;20014;-66
2023/06/16 00:03:03;;;;;;;6.68;3.58;;;;;;;;;;7369630;19;20010;-66
2023/06/16 00:05:29;;;;;;;6.70;3.50;;;;;;;;;;7370992;19;20069;-65
2023/06/16 00:07:59;;;;;;;9.65;3.80;;;;;;;;;;7369206;19;20084;-66
2023/06/16 00:10:25;;;;;;;8.23;3.80;;;;;;;;;;7390990;19;20010;-65
2023/06/16 00:12:50;;;;;;;8.80;4.00;;;;;;;;;;7369849;19;20048;-65
2023/06/16 00:15:16;;;;;;;6.95;3.63;;;;;;;;;;7370261;19;20010;-65
2023/06/16 00:17:44;;;;;;;7.68;3.53;;;;;;;;;;7369879;19;20532;-66
2023/06/16 00:20:11;;;;;;;11.10;4.28;;;;;;;;;;7370363;19;20031;-66
2023/06/16 00:22:36;;;;;;;7.32;4.00;;;;;;;;;;7371887;19;20009;-65
2023/06/16 00:25:02;;;;;;;7.45;3.70;;;;;;;;;;7389823;19;20002;-66
2023/06/16 00:27:27;;;;;;;6.45;3.38;;;;;;;;;;7368649;19;20428;-66
2023/06/16 00:29:52;;;;;;;9.82;3.60;;;;;;;;;;7370031;19;20014;-66
2023/06/16 00:32:18;;;;;;;7.78;3.72;;;;;;;;;;7370843;19;20013;-66
2023/06/16 00:34:43;;;;;;;6.65;3.90;;;;;;;;;;7378315;19;20014;-65
2023/06/16 00:37:08;;;;;;;8.75;5.75;;;;;;;;;;7419144;19;20524;-65
2023/06/16 00:39:34;;;;;;;8.60;3.88;;;;;;;;;;7397765;19;20013;-65
2023/06/16 00:41:59;;;;;;;8.35;3.88;;;;;;;;;;7394004;19;20058;-65
2023/06/16 00:44:25;;;;;;;8.43;3.75;;;;;;;;;;7382633;19;20007;-65
2023/06/16 00:46:50;;;;;;;8.93;3.47;;;;;;;;;;7370364;19;20078;-66
2023/06/16 00:49:16;;;;;;;7.38;3.53;;;;;;;;;;7391384;19;20003;-65
2023/06/16 00:51:42;;;;;;;7.72;3.78;;;;;;;;;;7370073;19;20018;-65
2023/06/16 00:54:07;;;;;;;5.65;3.30;;;;;;;;;;7371112;19;20010;-65
2023/06/16 00:56:34;;;;;;;6.60;3.45;;;;;;;;;;7373798;19;20559;-66
2023/06/16 00:59:00;;;;;;;7.15;3.70;;;;;;;;;;7369549;19;20856;-65
2023/06/16 01:01:26;;;;;;;7.20;3.80;;;;;;;;;;7391699;19;20003;-66
2023/06/16 01:03:53;;;;;;;8.02;3.72;;;;;;;;;;7368979;19;20014;-65
2023/06/16 01:06:36;;;;;;;8.10;3.75;;;;;;;;;;7368773;19;20006;-66
2023/06/16 01:09:22;;;;;;;6.63;3.40;;;;;;;;;;7368001;19;20413;-66
2023/06/16 01:12:15;;;;;;;5.65;3.40;;;;;;;;;;7368979;19;20012;-65
2023/06/16 01:14:40;;;;;;;6.47;3.35;;;;;;;;;;7367924;19;20089;-66
2023/06/16 01:17:08;;;;;;;10.18;3.85;;;;;;;;;;7368481;19;20014;-65
2023/06/16 01:19:42;;;;;;;8.80;3.65;;;;;;;;;;7390520;19;20014;-66
2023/06/16 01:22:39;;;;;;;7.95;3.45;;;;;;;;;;7367345;19;20007;-66
2023/06/16 01:25:07;;;;;;;8.52;3.45;;;;;;;;;;7368753;19;20010;-64
2023/06/16 01:27:37;;;;;;;8.18;3.53;;;;;;;;;;7367203;19;20460;-65
2023/06/16 01:30:05;;;;;;;7.63;3.75;;;;;;;;;;7367653;19;20440;-66
2023/06/16 01:32:32;;;;;;;8.23;3.60;;;;;;;;;;7369238;19;20010;-65
2023/06/16 01:34:59;;;;;;;7.45;3.60;;;;;;;;;;7367040;19;20014;-66
2023/06/16 01:37:25;;;;;;;6.72;3.65;;;;;;;;;;7383144;19;20003;-65
2023/06/16 01:39:52;;;;;;;10.95;3.65;;;;;;;;;;7366598;19;20031;-66
2023/06/16 01:42:17;;;;;;;6.63;3.45;;;;;;;;;;7367519;19;20010;-66
2023/06/16 01:44:43;;;;;;;7.43;3.50;;;;;;;;;;7367999;19;20467;-65
2023/06/16 01:47:09;;;;;;;6.50;3.90;;;;;;;;;;7367309;19;20014;-65
2023/06/16 01:49:35;;;;;;;8.02;3.80;;;;;;;;;;7389120;19;20009;-66
2023/06/16 01:52:01;;;;;;;10.05;3.97;;;;;;;;;;7367104;19;20018;-65
2023/06/16 01:54:27;;;;;;;7.80;3.53;;;;;;;;;;7365652;19;20010;-65
2023/06/16 01:56:52;;;;;;;9.43;3.85;;;;;;;;;;7366982;19;20066;-65
2023/06/16 01:59:17;;;;;;;9.27;4.00;;;;;;;;;;7366721;19;20480;-65
2023/06/16 02:01:49;;;;;;;11.50;4.65;;;;;;;;;;7365494;19;19998;-66
2023/06/16 02:04:17;;;;;;;8.77;3.72;;;;;;;;;;7389053;19;20007;-66
2023/06/16 02:06:59;;;;;;;8.52;3.83;;;;;;;;;;7366188;19;20010;-65
2023/06/16 02:09:26;;;;;;;9.50;4.03;;;;;;;;;;7365516;19;20676;-66
2023/06/16 02:11:52;;;;;;;10.07;4.10;;;;;;;;;;7367059;19;20450;-65
2023/06/16 02:14:18;;;;;;;11.00;4.13;;;;;;;;;;7367365;19;20013;-65
2023/06/16 02:16:44;;;;;;;6.38;4.03;;;;;;;;;;7365659;19;20003;-65
2023/06/16 02:19:11;;;;;;;8.43;4.07;;;;;;;;;;7387879;19;20008;-66
2023/06/16 02:21:37;;;;;;;5.68;3.42;;;;;;;;;;7365391;19;20006;-65
2023/06/16 02:24:03;;;;;;;7.13;3.83;;;;;;;;;;7366643;19;20010;-65
2023/06/16 02:26:29;;;;;;;6.63;3.72;;;;;;;;;;7367116;19;20031;-66
2023/06/16 02:28:55;;;;;;;8.65;3.75;;;;;;;;;;7365983;19;19998;-65
2023/06/16 02:31:20;;;;;;;7.90;3.42;;;;;;;;;;7388340;19;20453;-65
2023/06/16 02:33:49;;;;;;;7.47;4.25;;;;;;;;;;7364492;19;20014;-66
2023/06/16 02:36:16;;;;;;;7.57;3.92;;;;;;;;;;7365552;19;20025;-65
2023/06/16 02:38:42;;;;;;;7.85;3.90;;;;;;;;;;7365111;19;20732;-66
2023/06/16 02:41:07;;;;;;;7.38;3.72;;;;;;;;;;7365494;19;20054;-66
2023/06/16 02:43:32;;;;;;;10.93;4.30;;;;;;;;;;7387353;19;19998;-65
2023/06/16 02:46:00;;;;;;;6.80;3.75;;;;;;;;;;7366295;19;20009;-65
2023/06/16 02:48:26;;;;;;;9.80;4.30;;;;;;;;;;7365956;19;20006;-66
2023/06/16 02:50:51;;;;;;;7.47;4.30;;;;;;;;;;7371875;19;20015;-66
2023/06/16 02:53:18;;;;;;;8.98;3.88;;;;;;;;;;7372902;19;20338;-65
2023/06/16 02:55:46;;;;;;;8.50;4.05;;;;;;;;;;7373154;19;20003;-66
2023/06/16 02:58:11;;;;;;;7.53;3.78;;;;;;;;;;7392798;19;19999;-66
2023/06/16 03:00:37;;;;;;;7.72;4.13;;;;;;;;;;7371491;19;20026;-65
2023/06/16 03:03:02;;;;;;;8.15;3.78;;;;;;;;;;7372614;19;20044;-65
2023/06/16 03:05:28;;;;;;;9.48;3.90;;;;;;;;;;7372897;19;20048;-66
2023/06/16 03:07:53;;;;;;;8.00;3.83;;;;;;;;;;7371254;19;20021;-64
2023/06/16 03:10:19;;;;;;;9.57;4.15;;;;;;;;;;7394626;19;20113;-65
2023/06/16 03:12:44;;;;;;;8.68;3.83;;;;;;;;;;7372210;19;20034;-66
2023/06/16 03:15:10;;;;;;;8.18;3.83;;;;;;;;;;7372548;19;20484;-65
2023/06/16 03:17:36;;;;;;;7.63;3.95;;;;;;;;;;7370077;19;19999;-67
2023/06/16 03:20:04;;;;;;;11.02;3.72;;;;;;;;;;7369312;19;20006;-65
2023/06/16 03:22:29;;;;;;;7.28;4.07;;;;;;;;;;7391792;19;20116;-64
2023/06/16 03:25:02;;;;;;;9.45;4.07;;;;;;;;;;7369413;19;20464;-66
2023/06/16 03:27:28;;;;;;;6.78;3.60;;;;;;;;;;7367149;19;20077;-65
2023/06/16 03:29:53;;;;;;;9.65;3.53;;;;;;;;;;7371370;19;20036;-65
2023/06/16 03:32:18;;;;;;;6.07;3.42;;;;;;;;;;7371605;19;20437;-66
2023/06/16 03:34:44;;;;;;;9.05;3.83;;;;;;;;;;7371257;19;19999;-66
2023/06/16 03:37:09;;;;;;;8.55;4.07;;;;;;;;;;7392359;19;20002;-66
2023/06/16 03:39:34;;;;;;;7.85;4.15;;;;;;;;;;7371316;19;20034;-66
2023/06/16 03:42:00;;;;;;;8.23;3.83;;;;;;;;;;7372629;19;20002;-65
2023/06/16 03:44:25;;;;;;;5.85;3.47;;;;;;;;;;7372198;19;20015;-65
2023/06/16 03:46:51;;;;;;;5.72;3.25;;;;;;;;;;7370800;19;20014;-65
2023/06/16 03:49:16;;;;;;;8.88;3.75;;;;;;;;;;7392692;19;20467;-66
2023/06/16 03:51:42;;;;;;;9.60;4.32;;;;;;;;;;7371898;19;20010;-66
2023/06/16 03:54:07;;;;;;;8.23;4.10;;;;;;;;;;7371272;19;20007;-65
2023/06/16 03:56:33;;;;;;;8.07;3.75;;;;;;;;;;7371513;19;20017;-64
2023/06/16 03:58:58;;;;;;;8.68;4.18;;;;;;;;;;7371717;19;20022;-66
2023/06/16 04:01:24;;;;;;;6.15;3.90;;;;;;;;;;7385734;19;20034;-65
2023/06/16 04:03:50;;;;;;;9.80;4.05;;;;;;;;;;7370419;19;20002;-66
2023/06/16 04:06:16;;;;;;;6.18;3.47;;;;;;;;;;7370875;19;20017;-65
2023/06/16 04:08:41;;;;;;;9.75;4.30;;;;;;;;;;7370519;19;20014;-65
2023/06/16 04:11:06;;;;;;;11.48;3.80;;;;;;;;;;7371258;19;20007;-66
2023/06/16 04:13:32;;;;;;;8.05;3.97;;;;;;;;;;7393408;19;19994;-65
2023/06/16 04:15:57;;;;;;;6.97;3.92;;;;;;;;;;7370093;19;20010;-65
2023/06/16 04:18:23;;;;;;;9.73;4.10;;;;;;;;;;7370454;19;20014;-65
2023/06/16 04:20:48;;;;;;;6.20;3.60;;;;;;;;;;7370255;19;20002;-66
2023/06/16 04:23:13;;;;;;;8.07;3.90;;;;;;;;;;7371740;19;20059;-66
2023/06/16 04:25:40;;;;;;;7.55;3.58;;;;;;;;;;7370570;19;19995;-67
2023/06/16 04:28:06;;;;;;;8.07;4.00;;;;;;;;;;7392072;19;20026;-66
2023/06/16 04:30:33;;;;;;;5.80;3.75;;;;;;;;;;7370486;19;20728;-67
2023/06/16 04:33:01;;;;;;;7.68;4.22;;;;;;;;;;7372321;19;20025;-64
2023/06/16 04:35:31;;;;;;;9.27;4.13;;;;;;;;;;7374435;19;20523;-65
2023/06/16 04:37:58;;;;;;;6.40;4.00;;;;;;;;;;7373586;19;20010;-65
2023/06/16 04:40:24;;;;;;;7.50;4.50;;;;;;;;;;7396136;19;20103;-65
2023/06/16 04:42:50;;;;;;;7.25;4.00;;;;;;;;;;7371801;19;20099;-65
2023/06/16 04:45:15;;;;;;;8.65;4.80;;;;;;;;;;7372903;19;20632;-64
2023/06/16 04:47:42;;;;;;;6.68;3.97;;;;;;;;;;7372601;19;20375;-64
2023/06/16 04:50:09;;;;;;;7.30;4.05;;;;;;;;;;7373141;19;20014;-65
2023/06/16 04:52:36;;;;;;;12.38;4.05;;;;;;;;;;7397954;19;20520;-66
2023/06/16 04:55:02;;;;;;;7.10;3.85;;;;;;;;;;7375235;19;20011;-65
2023/06/16 04:57:27;;;;;;;9.00;4.13;;;;;;;;;;7373322;19;20547;-65
2023/06/16 04:59:53;;;;;;;9.43;3.95;;;;;;;;;;7375641;19;20006;-65
2023/06/16 05:02:18;;;;;;;12.45;5.20;;;;;;;;;;7374806;19;20489;-65
2023/06/16 05:04:43;;;;;;;7.50;3.78;;;;;;;;;;7373469;19;20002;-65
2023/06/16 05:07:11;;;;;;;7.30;3.78;;;;;;;;;;7394035;19;20009;-64
2023/06/16 05:09:38;;;;;;;9.02;4.10;;;;;;;;;;7371761;19;20550;-64
2023/06/16 05:12:47;;;;;;;11.43;4.20;;;;;;;;;;7370849;19;20002;-64
2023/06/16 05:15:12;;;;;;;13.00;4.15;;;;;;;;;;7369143;19;20019;-65
2023/06/16 05:17:38;;;;;;;7.88;4.18;;;;;;;;;;7368141;19;20028;-65
2023/06/16 05:20:04;;;;;;;11.90;4.00;;;;;;;;;;7366236;19;20031;-65
2023/06/16 05:22:30;;;;;;;13.88;4.95;;;;;;;;;;7385081;19;20411;-66
2023/06/16 05:24:57;;;;;;;15.02;4.57;;;;;;;;;;7369022;19;20029;-68
2023/06/16 05:27:23;;;;;;;9.90;4.28;;;;;;;;;;7362208;19;20018;-65
2023/06/16 05:29:51;;;;;;;27.45;5.18;;;;;;;;;;7361748;19;20013;-65
2023/06/16 05:32:17;;;;;;;12.10;4.30;;;;;;;;;;7369506;19;20030;-65
2023/06/16 05:34:42;;;;;;;13.02;4.40;;;;;;;;;;7367480;19;20544;-64
2023/06/16 05:37:07;;;;;;;7.60;3.92;;;;;;;;;;7389388;19;20009;-64
2023/06/16 05:39:32;;;;;;;10.05;3.75;;;;;;;;;;7366484;19;20018;-65
2023/06/16 05:41:58;;;;;;;11.55;3.97;;;;;;;;;;7368183;19;20007;-65
2023/06/16 05:44:23;;;;;;;9.88;3.92;;;;;;;;;;7368499;19;20010;-64
2023/06/16 05:46:48;;;;;;;8.60;3.70;;;;;;;;;;7366692;19;19999;-64
2023/06/16 05:49:14;;;;;;;9.30;4.07;;;;;;;;;;7389611;19;20005;-65
2023/06/16 05:51:39;;;;;;;8.63;3.72;;;;;;;;;;7370880;19;19998;-64
2023/06/16 05:54:05;;;;;;;10.25;4.55;;;;;;;;;;7368016;19;20010;-65
2023/06/16 05:56:30;;;;;;;8.43;4.10;;;;;;;;;;7368439;19;20499;-65
2023/06/16 05:58:56;;;;;;;11.30;3.85;;;;;;;;;;7367272;19;20004;-65
2023/06/16 06:01:21;;;;;;;9.23;4.10;;;;;;;;;;7389099;19;20366;-64
2023/06/16 06:03:47;;;;;;;8.52;4.00;;;;;;;;;;7366527;19;20884;-64
2023/06/16 06:06:12;;;;;;;6.20;3.50;;;;;;;;;;7368419;19;20541;-64
2023/06/16 06:08:38;;;;;;;10.88;4.22;;;;;;;;;;7364860;19;20005;-64
2023/06/16 06:11:06;;;;;;;12.73;4.10;;;;;;;;;;7367881;19;20397;-65
2023/06/16 06:13:32;;;;;;;8.25;4.13;;;;;;;;;;7390125;19;20011;-65
2023/06/16 06:15:58;;;;;;;11.00;4.40;;;;;;;;;;7368202;19;19998;-64
2023/06/16 06:18:23;;;;;;;11.23;3.80;;;;;;;;;;7367010;19;20002;-65
2023/06/16 06:20:49;;;;;;;13.70;4.20;;;;;;;;;;7367574;19;20483;-65
2023/06/16 06:23:14;;;;;;;19.60;4.20;;;;;;;;;;7370012;19;20599;-65
2023/06/16 06:25:40;;;;;;;15.93;4.35;;;;;;;;;;7374476;19;20499;-65
2023/06/16 06:28:06;;;;;;;13.90;4.53;;;;;;;;;;7395528;19;20014;-65
2023/06/16 06:30:31;;;;;;;14.82;3.58;;;;;;;;;;7373471;19;19998;-64
2023/06/16 06:32:59;;;;;;;7.55;4.05;;;;;;;;;;7376270;19;20006;-65
2023/06/16 06:35:25;;;;;;;10.77;3.75;;;;;;;;;;7374151;19;20014;-63
2023/06/16 06:37:50;;;;;;;11.38;4.05;;;;;;;;;;7373301;19;20361;-65
2023/06/16 06:40:15;;;;;;;8.13;4.40;;;;;;;;;;7394948;19;20014;-65
2023/06/16 06:42:41;;;;;;;11.98;3.95;;;;;;;;;;7370386;19;20344;-65
2023/06/16 06:45:08;;;;;;;8.02;4.18;;;;;;;;;;7375351;19;20014;-65
2023/06/16 06:47:34;;;;;;;13.23;4.47;;;;;;;;;;7374122;19;19999;-64
2023/06/16 06:49:59;;;;;;;11.95;4.35;;;;;;;;;;7374102;19;20046;-66
2023/06/16 06:52:25;;;;;;;10.13;4.53;;;;;;;;;;7395387;19;19994;-65
2023/06/16 06:54:50;;;;;;;9.45;4.15;;;;;;;;;;7373294;19;20052;-65
2023/06/16 06:57:15;;;;;;;10.15;4.57;;;;;;;;;;7372829;19;20013;-65
2023/06/16 06:59:41;;;;;;;7.60;4.10;;;;;;;;;;7374618;19;20022;-67
2023/06/16 07:02:07;;;;;;;7.70;4.32;;;;;;;;;;7372289;19;20006;-71
2023/06/16 07:04:34;;;;;;;11.70;3.72;;;;;;;;;;7395446;19;20001;-66
2023/06/16 07:07:00;;;;;;;10.23;4.05;;;;;;;;;;7371457;19;20018;-65
2023/06/16 07:09:25;;;;;;;7.68;3.60;;;;;;;;;;7372071;19;20420;-65
2023/06/16 07:11:50;;;;;;;8.35;3.65;;;;;;;;;;7374125;19;20009;-65
2023/06/16 07:14:16;;;;;;;7.13;3.92;;;;;;;;;;7373665;19;20050;-66
2023/06/16 07:16:41;;;;;;;6.13;3.60;;;;;;;;;;7372088;19;20006;-65
2023/06/16 07:19:06;;;;;;;7.57;3.22;;;;;;;;;;7394885;19;20018;-66
2023/06/16 07:21:31;;;;;;;9.45;3.88;;;;;;;;;;7371988;19;20010;-67
2023/06/16 07:23:57;;;;;;;7.45;3.60;;;;;;;;;;7374074;19;20683;-65
2023/06/16 07:26:23;;;;;;;7.82;3.58;;;;;;;;;;7372784;19;20419;-66
2023/06/16 07:28:48;;;;;;;4.18;2.50;;;;;;;;;;7371639;19;20006;-66
2023/06/16 07:31:13;;;;;;;5.20;2.30;;;;;;;;;;7393374;19;20029;-67
2023/06/16 07:33:39;;;;;;;6.95;6.35;;;;;;;;;;7372663;19;20290;-66
2023/06/16 07:36:04;;;;;;;18.65;4.20;;;;;;;;;;7371042;19;20366;-65
2023/06/16 07:38:30;;;;;;;16.48;4.43;;;;;;;;;;7367660;19;20076;-67
2023/06/16 07:40:55;;;;;;;9.88;3.58;;;;;;;;;;7373069;19;20475;-65
2023/06/16 07:43:24;;;;;;;9.35;3.63;;;;;;;;;;7394009;19;20495;-67
2023/06/16 07:45:51;;;;;;;11.35;4.07;;;;;;;;;;7372570;19;20518;-66
2023/06/16 07:48:16;;;;;;;30.75;26.30;;;;;;;;;;7371682;19;20049;-66
2023/06/16 07:50:41;;;;;;;133.18;32.28;;;;;;;;;;7372084;19;20706;-66
2023/06/16 07:53:07;;;;;;;152.80;52.28;;;;;;;;;;7371980;19;20014;-65
2023/06/16 07:55:32;;;;;;;14.77;3.67;;;;;;;;;;7395932;19;20460;-65
2023/06/16 07:57:57;;;;;;;7.15;3.72;;;;;;;;;;7370533;19;20014;-65
2023/06/16 08:00:23;;;;;;;13.10;3.40;;;;;;;;;;7371721;19;20027;-66
2023/06/16 08:02:48;;;;;;;8.35;3.53;;;;;;;;;;7370999;19;20748;-66
2023/06/16 08:05:16;;;;;;;9.40;3.15;;;;;;;;;;7372068;19;20015;-66
2023/06/16 08:07:42;;;;;;;10.57;3.30;;;;;;;;;;7368920;19;20003;-66
2023/06/16 08:10:08;;;;;;;14.60;4.53;;;;;;;;;;7391319;19;20014;-66
2023/06/16 08:12:34;;;;;;;9.10;3.80;;;;;;;;;;7371238;19;20033;-67
2023/06/16 08:14:59;;;;;;;23.23;20.20;;;;;;;;;;7372756;19;20469;-64
2023/06/16 08:17:25;;;;;;;12.55;7.30;;;;;;;;;;7370387;19;20696;-66
2023/06/16 08:19:52;;;;;;;9.68;4.95;;;;;;;;;;7371584;19;19999;-67
2023/06/16 08:22:18;;;;;;;8.68;4.10;;;;;;;;;;7391465;19;20035;-66
2023/06/16 08:24:43;;;;;;;14.48;5.05;;;;;;;;;;7370556;19;20006;-66
2023/06/16 08:27:08;;;;;;;106.28;19.73;;;;;;;;;;7369703;19;20039;-65
2023/06/16 08:29:34;;;;;;;15.43;5.05;;;;;;;;;;7371680;19;20081;-66
2023/06/16 08:32:00;;;;;;;12.18;4.30;;;;;;;;;;7372887;19;20010;-65
2023/06/16 08:34:25;;;;;;;9.50;3.75;;;;;;;;;;7394651;19;20023;-65
2023/06/16 08:36:51;;;;;;;11.80;3.67;;;;;;;;;;7371204;19;20404;-66
2023/06/16 08:39:17;;;;;;;6.25;3.70;;;;;;;;;;7370499;19;20014;-66
2023/06/16 08:41:43;;;;;;;8.90;3.80;;;;;;;;;;7369782;19;20015;-66
2023/06/16 08:44:09;;;;;;;8.88;3.70;;;;;;;;;;7370733;19;20010;-66
2023/06/16 08:46:36;;;;;;;9.02;3.97;;;;;;;;;;7390584;19;20060;-66
2023/06/16 08:49:03;;;;;;;11.38;3.72;;;;;;;;;;7370205;19;20554;-66
2023/06/16 08:51:33;;;;;;;10.10;4.22;;;;;;;;;;7370172;19;20091;-67
2023/06/16 08:54:02;;;;;;;10.05;3.53;;;;;;;;;;7369810;19;20103;-66
2023/06/16 08:56:32;;;;;;;7.03;3.65;;;;;;;;;;7370175;19;20011;-65
2023/06/16 08:59:00;;;;;;;8.90;3.55;;;;;;;;;;7370136;19;20010;-66
2023/06/16 09:01:28;;;;;;;12.77;4.13;;;;;;;;;;7390940;19;20006;-66
2023/06/16 09:03:54;;;;;;;10.60;3.92;;;;;;;;;;7370108;19;20010;-65
2023/06/16 09:06:20;;;;;;;10.23;4.20;;;;;;;;;;7369733;19;20391;-67
2023/06/16 09:08:45;;;;;;;8.82;3.90;;;;;;;;;;7368590;19;20006;-66
2023/06/16 09:11:10;;;;;;;8.32;3.58;;;;;;;;;;7370823;19;20446;-67
2023/06/16 09:13:42;;;;;;;7.32;3.88;;;;;;;;;;7382698;19;20006;-66
2023/06/16 09:16:09;;;;;;;7.20;3.78;;;;;;;;;;7391545;19;20033;-67
2023/06/16 09:18:40;;;;;;;8.55;3.88;;;;;;;;;;7368560;19;20082;-66
2023/06/16 09:21:07;;;;;;;11.43;3.70;;;;;;;;;;7369504;19;20002;-66
2023/06/16 09:23:34;;;;;;;7.88;3.75;;;;;;;;;;7369268;19;20471;-66
2023/06/16 09:25:59;;;;;;;10.05;3.30;;;;;;;;;;7369141;19;20386;-64
2023/06/16 09:28:35;;;;;;;13.07;3.47;;;;;;;;;;7384589;19;20002;-65
2023/06/16 09:31:02;;;;;;;8.88;3.50;;;;;;;;;;7367973;19;20484;-65
2023/06/16 09:33:28;;;;;;;5.20;3.20;;;;;;;;;;7369392;19;20488;-66
2023/06/16 09:35:54;;;;;;;8.35;3.53;;;;;;;;;;7368814;19;20014;-66
2023/06/16 09:38:19;;;;;;;6.63;3.38;;;;;;;;;;7368188;19;20010;-66
2023/06/16 09:40:45;;;;;;;9.15;3.40;;;;;;;;;;7367358;19;20013;-66
2023/06/16 09:43:11;;;;;;;5.32;3.00;;;;;;;;;;7390016;19;20006;-66
2023/06/16 09:45:37;;;;;;;5.70;3.30;;;;;;;;;;7368856;19;20450;-66
2023/06/16 09:48:05;;;;;;;9.43;3.50;;;;;;;;;;7368386;19;20015;-66
2023/06/16 09:50:31;;;;;;;8.43;3.70;;;;;;;;;;7367280;19;20025;-66
2023/06/16 09:52:57;;;;;;;6.15;3.15;;;;;;;;;;7367970;19;20517;-67
2023/06/16 09:55:27;;;;;;;5.40;3.08;;;;;;;;;;7389699;19;20005;-67
2023/06/16 09:57:53;;;;;;;5.35;3.45;;;;;;;;;;7365919;19;20090;-67
2023/06/16 10:00:19;;;;;;;9.98;3.67;;;;;;;;;;7366931;19;20002;-67
2023/06/16 10:02:46;;;;;;;7.13;3.35;;;;;;;;;;7367139;19;20003;-67
2023/06/16 10:05:19;;;;;;;10.32;3.08;;;;;;;;;;7368143;19;20513;-67
2023/06/16 10:07:49;;;;;;;9.50;3.20;;;;;;;;;;7367010;19;20027;-67
2023/06/16 10:10:15;;;;;;;5.80;3.10;;;;;;;;;;7387280;19;19999;-66
2023/06/16 10:12:45;;;;;;;6.55;3.00;;;;;;;;;;7367347;19;20009;-70
2023/06/16 10:15:15;;;;;;;6.30;3.10;;;;;;;;;;7367864;19;20023;-70
2023/06/16 10:17:41;;;;;;;7.00;3.20;;;;;;;;;;7367237;19;20014;-70
2023/06/16 10:20:10;;;;;;;15.05;3.45;;;;;;;;;;7366024;19;20104;-69
2023/06/16 10:22:36;;;;;;;6.03;3.30;;;;;;;;;;7388665;19;20326;-70
2023/06/16 10:25:03;;;;;;;6.93;3.38;;;;;;;;;;7367672;19;20030;-69
2023/06/16 10:27:29;;;;;;;6.00;3.30;;;;;;;;;;7366402;19;20013;-70
2023/06/16 10:29:56;;;;;;;7.32;3.10;;;;;;;;;;7363490;19;20234;-69
2023/06/16 10:32:21;;;;;;;8.15;3.50;;;;;;;;;;7363307;19;20504;-70
2023/06/16 10:34:49;;;;;;;7.82;3.50;;;;;;;;;;7363343;19;19998;-69
2023/06/16 10:37:15;;;;;;;5.32;3.35;;;;;;;;;;7385915;19;19994;-70
2023/06/16 10:39:45;;;;;;;5.95;3.17;;;;;;;;;;7367333;19;20005;-71
2023/06/16 10:42:12;;;;;;;8.10;3.22;;;;;;;;;;7366822;19;20082;-70
2023/06/16 10:44:38;;;;;;;5.47;3.10;;;;;;;;;;7368128;19;20002;-70
2023/06/16 10:47:10;;;;;;;6.78;3.15;;;;;;;;;;7367674;19;20006;-70
2023/06/16 10:49:50;;;;;;;10.93;3.40;;;;;;;;;;7388489;19;20117;-70
2023/06/16 10:52:19;;;;;;;9.60;3.28;;;;;;;;;;7367312;19;20006;-71
2023/06/16 10:54:48;;;;;;;7.43;3.13;;;;;;;;;;7365960;19;20003;-70
2023/06/16 10:57:14;;;;;;;5.27;3.20;;;;;;;;;;7366236;19;20034;-71
2023/06/16 11:00:11;;;;;;;10.65;3.05;;;;;;;;;;7365911;19;20017;-70
2023/06/16 11:02:38;;;;;;;4.93;2.83;;;;;;;;;;7365475;19;20697;-70
2023/06/16 11:05:12;;;;;;;9.85;3.60;;;;;;;;;;7366904;19;20086;-71
2023/06/16 11:07:39;;;;;;;6.82;3.22;;;;;;;;;;7366145;19;20003;-69
2023/06/16 11:10:09;;;;;;;6.90;2.97;;;;;;;;;;7381361;19;20468;-70
2023/06/16 11:12:35;;;;;;;5.40;2.90;;;;;;;;;;7368529;19;20199;-70
2023/06/16 11:15:05;;;;;;;6.07;2.80;;;;;;;;;;7370664;19;20017;-71
2023/06/16 11:17:31;;;;;;;;;;;;;;;;;;7370480;19;20034;-70
2023/06/16 11:19:57;;;;;;;5.28;3.30;;;;;;;;;;7369799;19;19912;-70
2023/06/16 11:22:30;;;;;;;6.53;3.15;;;;;;;;;;7393665;19;19999;-71
2023/06/16 11:24:56;;;;;;;7.43;3.00;;;;;;;;;;7374111;19;20014;-70
2023/06/16 11:27:21;;;;;;;7.95;3.38;;;;;;;;;;7372574;19;20478;-71
2023/06/16 11:29:47;;;;;;;5.35;3.22;;;;;;;;;;7372581;19;20010;-70
2023/06/16 11:32:16;;;;;;;6.20;3.42;;;;;;;;;;7373162;19;20003;-70
2023/06/16 11:34:41;;;;;;;8.40;3.72;;;;;;;;;;7372168;19;20062;-70
2023/06/16 11:37:07;;;;;;;6.75;4.07;;;;;;;;;;7394190;19;20037;-70
2023/06/16 11:39:42;;;;;;;6.70;3.20;;;;;;;;;;7371473;19;20020;-70
2023/06/16 11:42:15;;;;;;;5.75;3.20;;;;;;;;;;7372098;19;20015;-70
2023/06/16 11:44:41;;;;;;;9.93;2.92;;;;;;;;;;7373132;19;20002;-70
2023/06/16 11:47:07;;;;;;;8.98;3.20;;;;;;;;;;7372244;19;20006;-69
2023/06/16 11:49:36;;;;;;;5.85;2.85;;;;;;;;;;7394312;19;19999;-69
2023/06/16 11:52:06;;;;;;;6.90;3.25;;;;;;;;;;7373420;19;20034;-70
2023/06/16 11:54:32;;;;;;;6.55;3.30;;;;;;;;;;7371843;19;20074;-70
2023/06/16 11:56:59;;;;;;;5.07;3.25;;;;;;;;;;7369296;19;20699;-69
2023/06/16 11:59:28;;;;;;;6.80;3.40;;;;;;;;;;7371822;19;20023;-69
2023/06/16 12:01:56;;;;;;;10.10;3.78;;;;;;;;;;7371639;19;20097;-69
2023/06/16 12:04:22;;;;;;;5.13;3.20;;;;;;;;;;7393993;19;20042;-70
2023/06/16 12:06:47;;;;;;;5.75;3.28;;;;;;;;;;7373458;19;20099;-70
2023/06/16 12:09:14;;;;;;;5.35;2.97;;;;;;;;;;7375577;19;20006;-70
2023/06/16 12:11:44;;;;;;;7.53;3.20;;;;;;;;;;7379704;19;20002;-70
2023/06/16 12:14:10;;;;;;;6.25;3.10;;;;;;;;;;7378755;19;20011;-69
2023/06/16 12:16:35;;;;;;;5.70;2.88;;;;;;;;;;7401548;19;20023;-69
2023/06/16 12:19:01;;;;;;;10.80;3.33;;;;;;;;;;7388908;19;20445;-70
2023/06/16 12:21:30;;;;;;;15.30;3.88;;;;;;;;;;7379306;19;20010;-70
2023/06/16 12:23:58;;;;;;;5.88;2.97;;;;;;;;;;7385574;19;20002;-69
2023/06/16 12:26:39;;;;;;;6.15;3.13;;;;;;;;;;7379301;19;20011;-70
2023/06/16 12:29:10;;;;;;;5.60;3.08;;;;;;;;;;7377489;19;20063;-69
2023/06/16 12:31:35;;;;;;;5.05;2.88;;;;;;;;;;7396427;19;20005;-70
2023/06/16 12:34:00;;;;;;;5.85;2.92;;;;;;;;;;7374809;19;20002;-70
2023/06/16 12:36:26;;;;;;;8.40;2.92;;;;;;;;;;7375379;19;19998;-70
2023/06/16 12:38:57;;;;;;;5.13;2.83;;;;;;;;;;7375139;19;20010;-70
2023/06/16 12:41:27;;;;;;;5.78;3.03;;;;;;;;;;7375966;19;20350;-69
2023/06/16 12:43:55;;;;;;;5.00;2.67;;;;;;;;;;7372781;19;20026;-71
2023/06/16 12:46:20;;;;;;;5.38;2.95;;;;;;;;;;7397171;19;20044;-70
2023/06/16 12:48:46;;;;;;;8.15;2.95;;;;;;;;;;7373920;19;20010;-71
2023/06/16 12:51:11;;;;;;;5.75;2.85;;;;;;;;;;7374769;19;20091;-70
2023/06/16 12:53:46;;;;;;;5.43;2.47;;;;;;;;;;7372297;19;20485;-70
2023/06/16 12:56:12;;;;;;;4.72;2.65;;;;;;;;;;7370894;19;20034;-70
2023/06/16 12:58:38;;;;;;;5.43;2.70;;;;;;;;;;7367830;19;20027;-71
2023/06/16 13:01:05;;;;;;;4.75;2.50;;;;;;;;;;7392152;19;20009;-70
2023/06/16 13:03:30;;;;;;;7.45;2.90;;;;;;;;;;7370260;19;20006;-70
2023/06/16 13:05:56;;;;;;;5.80;2.70;;;;;;;;;;7371375;19;20001;-69
2023/06/16 13:08:21;;;;;;;6.22;2.90;;;;;;;;;;7367893;19;20006;-70
2023/06/16 13:10:46;;;;;;;6.50;3.25;;;;;;;;;;7369809;19;20658;-71
2023/06/16 13:13:12;;;;;;;4.63;2.80;;;;;;;;;;7394720;19;20663;-69
2023/06/16 13:15:37;;;;;;;4.80;2.78;;;;;;;;;;7372375;19;20014;-70
2023/06/16 13:18:03;;;;;;;6.38;2.90;;;;;;;;;;7372022;19;20017;-70
2023/06/16 13:20:29;;;;;;;5.43;3.15;;;;;;;;;;7371063;19;20011;-70
2023/06/16 13:22:54;;;;;;;5.72;3.00;;;;;;;;;;7370590;19;20024;-71
2023/06/16 13:25:19;;;;;;;4.82;2.80;;;;;;;;;;7392672;19;20362;-70
2023/06/16 13:27:45;;;;;;;6.20;2.80;;;;;;;;;;7368944;19;20081;-69
2023/06/16 13:30:10;;;;;;;5.18;2.83;;;;;;;;;;7366052;19;20010;-70
2023/06/16 13:32:36;;;;;;;5.45;3.13;;;;;;;;;;7368249;19;20011;-70
2023/06/16 13:35:01;;;;;;;7.25;3.35;;;;;;;;;;7369542;19;21311;-70
2023/06/16 13:37:27;;;;;;;6.05;2.88;;;;;;;;;;7389300;19;20010;-70
2023/06/16 13:39:53;;;;;;;7.10;3.40;;;;;;;;;;7367589;19;20101;-69
2023/06/16 13:42:18;;;;;;;5.35;2.92;;;;;;;;;;7367951;19;20010;-69
2023/06/16 13:44:44;;;;;;;7.00;3.03;;;;;;;;;;7368637;19;20587;-69
2023/06/16 13:47:10;;;;;;;10.52;3.08;;;;;;;;;;7368598;19;20098;-69
2023/06/16 13:49:36;;;;;;;6.57;3.05;;;;;;;;;;7385465;19;20079;-70
2023/06/16 13:52:02;;;;;;;6.25;3.03;;;;;;;;;;7375603;19;20414;-71
2023/06/16 13:54:27;;;;;;;6.65;3.30;;;;;;;;;;7368079;19;20010;-70
2023/06/16 13:56:52;;;;;;;9.13;3.20;;;;;;;;;;7367579;19;20025;-71
2023/06/16 13:59:19;;;;;;;4.20;2.78;;;;;;;;;;7367346;19;20042;-70
2023/06/16 14:01:44;;;;;;;6.35;3.22;;;;;;;;;;7366834;19;20366;-71
2023/06/16 14:04:10;;;;;;;6.95;3.00;;;;;;;;;;7388822;19;20009;-70
2023/06/16 14:06:35;;;;;;;4.55;3.05;;;;;;;;;;7366606;19;20014;-69
2023/06/16 14:09:01;;;;;;;5.75;2.80;;;;;;;;;;7366444;19;20598;-70
2023/06/16 14:11:26;;;;;;;5.57;3.28;;;;;;;;;;7367384;19;20003;-70
2023/06/16 14:13:51;;;;;;;6.85;3.30;;;;;;;;;;7367304;19;20293;-70
2023/06/16 14:16:17;;;;;;;5.85;3.20;;;;;;;;;;7388545;19;20007;-70
2023/06/16 14:18:42;;;;;;;6.00;2.95;;;;;;;;;;7365665;19;20014;-69
2023/06/16 14:21:07;;;;;;;6.18;3.20;;;;;;;;;;7366704;19;20006;-70
2023/06/16 14:23:34;;;;;;;3.67;2.38;;;;;;;;;;7367256;19;20010;-70
2023/06/16 14:25:59;;;;;;;9.70;3.10;;;;;;;;;;7368001;19;20122;-70
2023/06/16 14:28:25;;;;;;;7.50;3.30;;;;;;;;;;7387179;19;20018;-71
2023/06/16 14:30:50;;;;;;;8.35;3.22;;;;;;;;;;7365488;19;20010;-70
2023/06/16 14:33:15;;;;;;;6.07;3.10;;;;;;;;;;7364930;19;20013;-70
2023/06/16 14:35:41;;;;;;;6.55;3.42;;;;;;;;;;7364860;19;20014;-71
2023/06/16 14:38:06;;;;;;;7.57;3.78;;;;;;;;;;7364463;19;20018;-69